Observations for LEVALDIGI, Italy (LIMZ)

LIMZ 191850Z 00000KT 3000 -DZ BKN005 OVC020 14/14 Q1015 
LIMZ 191750Z 00000KT 3000 -DZ BR BKN005 OVC020 14/14 Q1015  
LIMZ 191650Z VRB01KT 3000 -DZ BR BKN007 OVC020 14/14 Q1015 REDZ 
LIMZ 191608Z 07002KT 3000 DZ BR BKN005 OVC020 14/13 Q1015
LIMZ 191550Z 08003KT 5000 BR BKN006 OVC030 14/13 Q1015  
LIMZ 191450Z 06003KT 6000 BKN012 OVC050 15/14 Q1014 
LIMZ 191350Z 03003KT 6000 BKN012 OVC050 15/14 Q1014 
LIMZ 191250Z 04003KT 4000 BKN006 OVC020 15/13 Q0971 
LIMZ 191150Z 01003KT 4000 BR BKN006 OVC020 15/13 Q1015  
LIMZ 191050Z 32004KT 2000 BR BKN003 OVC007 14/14 Q1015  
LIMZ 190950Z 01003KT 1500 R21/1400V1500U BR BKN003 OVC007 14/14 Q1015   
LIMZ 190921Z VRB02KT 1400 R21/P1500D BR BKN002 OVC007 13/13 Q1016
LIMZ 190850Z 34004KT 2000 BR BKN002 OVC007 14/14 Q1015  
LIMZ 190750Z VRB02KT 1500 R21/P1500D BR BKN002 OVC007 13/13 Q1015   
LIMZ 190650Z VRB02KT 2000 BR BKN002 OVC010 13/13 Q1015  
LIMZ 190550Z 34003KT 2000 BR BKN003 OVC010 13/13 Q1014  
LIMZ 190500Z 36004KT 3500 BR BKN003 13/13 Q1014